sensor_id;sensor_type;location;lat;lon;timestamp;temperature;humidity
10312;DHT22;5201;48.776;9.128;2023-08-07T00:01:52;13.30;99.90
10312;DHT22;5201;48.776;9.128;2023-08-07T00:04:17;13.50;99.90
10312;DHT22;5201;48.776;9.128;2023-08-07T00:06:43;13.00;99.90
10312;DHT22;5201;48.776;9.128;2023-08-07T00:09:08;13.00;99.90
10312;DHT22;5201;48.776;9.128;2023-08-07T00:11:34;13.00;99.90
10312;DHT22;5201;48.776;9.128;2023-08-07T00:14:00;12.90;99.90
10312;DHT22;5201;48.776;9.128;2023-08-07T00:16:26;12.90;99.90
10312;DHT22;5201;48.776;9.128;2023-08-07T00:18:51;13.20;99.90
10312;DHT22;5201;48.776;9.128;2023-08-07T00:21:21;12.80;99.90
10312;DHT22;5201;48.776;9.128;2023-08-07T00:23:47;12.80;99.90
10312;DHT22;5201;48.776;9.128;2023-08-07T00:26:12;12.80;99.90
10312;DHT22;5201;48.776;9.128;2023-08-07T00:28:38;12.80;99.90
10312;DHT22;5201;48.776;9.128;2023-08-07T00:31:03;12.80;99.90
10312;DHT22;5201;48.776;9.128;2023-08-07T00:33:29;12.90;99.90
10312;DHT22;5201;48.776;9.128;2023-08-07T00:35:55;12.90;99.90
10312;DHT22;5201;48.776;9.128;2023-08-07T00:38:20;12.90;99.90
10312;DHT22;5201;48.776;9.128;2023-08-07T00:40:46;13.10;99.90
10312;DHT22;5201;48.776;9.128;2023-08-07T00:43:11;13.40;99.90
10312;DHT22;5201;48.776;9.128;2023-08-07T00:45:42;13.00;99.90
10312;DHT22;5201;48.776;9.128;2023-08-07T00:48:08;13.00;99.90
10312;DHT22;5201;48.776;9.128;2023-08-07T00:50:33;13.00;99.90
10312;DHT22;5201;48.776;9.128;2023-08-07T00:52:59;12.90;99.90
10312;DHT22;5201;48.776;9.128;2023-08-07T00:55:26;13.00;99.90
10312;DHT22;5201;48.776;9.128;2023-08-07T00:57:51;13.10;99.90
10312;DHT22;5201;48.776;9.128;2023-08-07T01:00:18;15.00;99.90
10312;DHT22;5201;48.776;9.128;2023-08-07T01:02:44;13.40;99.90
10312;DHT22;5201;48.776;9.128;2023-08-07T01:05:10;13.30;99.90
10312;DHT22;5201;48.776;9.128;2023-08-07T01:07:36;13.20;99.90
10312;DHT22;5201;48.776;9.128;2023-08-07T01:10:01;13.20;99.90
10312;DHT22;5201;48.776;9.128;2023-08-07T01:12:38;13.20;99.90
10312;DHT22;5201;48.776;9.128;2023-08-07T01:15:09;13.20;99.90
10312;DHT22;5201;48.776;9.128;2023-08-07T01:17:37;13.20;99.90
10312;DHT22;5201;48.776;9.128;2023-08-07T01:20:04;13.20;99.90
10312;DHT22;5201;48.776;9.128;2023-08-07T01:22:30;13.10;99.90
10312;DHT22;5201;48.776;9.128;2023-08-07T01:24:56;13.00;99.90
10312;DHT22;5201;48.776;9.128;2023-08-07T01:27:32;13.00;99.90
10312;DHT22;5201;48.776;9.128;2023-08-07T01:32:59;13.10;99.90
10312;DHT22;5201;48.776;9.128;2023-08-07T01:35:34;13.00;99.90
10312;DHT22;5201;48.776;9.128;2023-08-07T01:38:01;13.90;99.90
10312;DHT22;5201;48.776;9.128;2023-08-07T01:40:28;13.00;99.90
10312;DHT22;5201;48.776;9.128;2023-08-07T01:42:54;13.10;99.90
10312;DHT22;5201;48.776;9.128;2023-08-07T01:45:24;13.00;99.90
10312;DHT22;5201;48.776;9.128;2023-08-07T01:47:51;13.10;99.90
10312;DHT22;5201;48.776;9.128;2023-08-07T01:50:20;13.00;99.90
10312;DHT22;5201;48.776;9.128;2023-08-07T01:52:46;13.00;99.90
10312;DHT22;5201;48.776;9.128;2023-08-07T01:55:13;13.00;99.90
10312;DHT22;5201;48.776;9.128;2023-08-07T01:57:39;12.90;99.90
10312;DHT22;5201;48.776;9.128;2023-08-07T02:00:06;12.90;99.90
10312;DHT22;5201;48.776;9.128;2023-08-07T02:02:31;12.90;99.90
10312;DHT22;5201;48.776;9.128;2023-08-07T02:04:57;12.90;99.90
10312;DHT22;5201;48.776;9.128;2023-08-07T02:07:22;13.10;99.90
10312;DHT22;5201;48.776;9.128;2023-08-07T02:09:48;12.80;99.90
10312;DHT22;5201;48.776;9.128;2023-08-07T02:12:14;12.80;99.90
10312;DHT22;5201;48.776;9.128;2023-08-07T02:14:39;12.90;99.90
10312;DHT22;5201;48.776;9.128;2023-08-07T02:17:05;12.90;99.90
10312;DHT22;5201;48.776;9.128;2023-08-07T02:19:30;13.00;99.90
10312;DHT22;5201;48.776;9.128;2023-08-07T02:21:56;13.00;99.90
10312;DHT22;5201;48.776;9.128;2023-08-07T02:24:21;13.00;99.90
10312;DHT22;5201;48.776;9.128;2023-08-07T02:26:47;13.40;99.90
10312;DHT22;5201;48.776;9.128;2023-08-07T02:29:13;13.10;99.90
10312;DHT22;5201;48.776;9.128;2023-08-07T02:31:38;13.10;99.90
10312;DHT22;5201;48.776;9.128;2023-08-07T02:34:04;13.00;99.90
10312;DHT22;5201;48.776;9.128;2023-08-07T02:36:29;12.90;99.90
10312;DHT22;5201;48.776;9.128;2023-08-07T02:38:55;12.90;99.90
10312;DHT22;5201;48.776;9.128;2023-08-07T02:41:20;13.30;99.90
10312;DHT22;5201;48.776;9.128;2023-08-07T02:43:46;13.30;99.90
10312;DHT22;5201;48.776;9.128;2023-08-07T02:46:11;12.80;99.90
10312;DHT22;5201;48.776;9.128;2023-08-07T02:48:37;12.90;99.90
10312;DHT22;5201;48.776;9.128;2023-08-07T02:51:04;12.80;99.90
10312;DHT22;5201;48.776;9.128;2023-08-07T02:53:30;12.80;99.90
10312;DHT22;5201;48.776;9.128;2023-08-07T02:55:55;12.80;99.90
10312;DHT22;5201;48.776;9.128;2023-08-07T02:58:21;12.70;99.90
10312;DHT22;5201;48.776;9.128;2023-08-07T03:00:46;12.60;99.90
10312;DHT22;5201;48.776;9.128;2023-08-07T03:03:12;12.70;99.90
10312;DHT22;5201;48.776;9.128;2023-08-07T03:05:38;12.60;99.90
10312;DHT22;5201;48.776;9.128;2023-08-07T03:08:03;12.60;99.90
10312;DHT22;5201;48.776;9.128;2023-08-07T03:10:29;12.60;99.90
10312;DHT22;5201;48.776;9.128;2023-08-07T03:12:54;12.80;99.90
10312;DHT22;5201;48.776;9.128;2023-08-07T03:15:20;12.60;99.90
10312;DHT22;5201;48.776;9.128;2023-08-07T03:17:45;12.80;99.90
10312;DHT22;5201;48.776;9.128;2023-08-07T03:20:11;13.10;99.90
10312;DHT22;5201;48.776;9.128;2023-08-07T03:22:37;12.70;99.90
10312;DHT22;5201;48.776;9.128;2023-08-07T03:25:03;12.70;99.90
10312;DHT22;5201;48.776;9.128;2023-08-07T03:27:28;12.70;99.90
10312;DHT22;5201;48.776;9.128;2023-08-07T03:29:54;12.70;99.90
10312;DHT22;5201;48.776;9.128;2023-08-07T03:32:20;12.70;99.90
10312;DHT22;5201;48.776;9.128;2023-08-07T03:34:45;12.90;99.90
10312;DHT22;5201;48.776;9.128;2023-08-07T03:37:11;12.80;99.90
10312;DHT22;5201;48.776;9.128;2023-08-07T03:39:36;12.70;99.90
10312;DHT22;5201;48.776;9.128;2023-08-07T03:42:02;12.60;99.90
10312;DHT22;5201;48.776;9.128;2023-08-07T03:44:28;12.70;99.90
10312;DHT22;5201;48.776;9.128;2023-08-07T03:46:53;12.60;99.90
10312;DHT22;5201;48.776;9.128;2023-08-07T03:49:21;13.00;99.90
10312;DHT22;5201;48.776;9.128;2023-08-07T03:51:48;12.60;99.90
10312;DHT22;5201;48.776;9.128;2023-08-07T03:54:14;12.60;99.90
10312;DHT22;5201;48.776;9.128;2023-08-07T03:56:40;12.50;99.90
10312;DHT22;5201;48.776;9.128;2023-08-07T03:59:06;12.50;99.90
10312;DHT22;5201;48.776;9.128;2023-08-07T04:01:32;12.80;99.90
10312;DHT22;5201;48.776;9.128;2023-08-07T04:03:57;12.60;99.90
10312;DHT22;5201;48.776;9.128;2023-08-07T04:06:23;12.50;99.90
10312;DHT22;5201;48.776;9.128;2023-08-07T04:08:48;12.40;99.90
10312;DHT22;5201;48.776;9.128;2023-08-07T04:11:14;12.40;99.90
10312;DHT22;5201;48.776;9.128;2023-08-07T04:13:40;12.40;99.90
10312;DHT22;5201;48.776;9.128;2023-08-07T04:16:05;12.80;99.90
10312;DHT22;5201;48.776;9.128;2023-08-07T04:18:32;12.40;99.90
10312;DHT22;5201;48.776;9.128;2023-08-07T04:20:58;12.40;99.90
10312;DHT22;5201;48.776;9.128;2023-08-07T04:23:24;12.40;99.90
10312;DHT22;5201;48.776;9.128;2023-08-07T04:25:51;12.70;99.90
10312;DHT22;5201;48.776;9.128;2023-08-07T04:28:17;12.80;99.90
10312;DHT22;5201;48.776;9.128;2023-08-07T04:30:44;12.40;99.90
10312;DHT22;5201;48.776;9.128;2023-08-07T04:33:10;12.40;99.90
10312;DHT22;5201;48.776;9.128;2023-08-07T04:35:36;12.40;99.90
10312;DHT22;5201;48.776;9.128;2023-08-07T04:38:02;12.40;99.90
10312;DHT22;5201;48.776;9.128;2023-08-07T04:40:28;13.10;99.90
10312;DHT22;5201;48.776;9.128;2023-08-07T04:42:54;12.50;99.90
10312;DHT22;5201;48.776;9.128;2023-08-07T04:45:19;12.60;99.90
10312;DHT22;5201;48.776;9.128;2023-08-07T04:47:45;13.20;99.90
10312;DHT22;5201;48.776;9.128;2023-08-07T04:50:11;13.10;99.90
10312;DHT22;5201;48.776;9.128;2023-08-07T04:52:36;12.70;99.90
10312;DHT22;5201;48.776;9.128;2023-08-07T04:55:04;12.80;99.90
10312;DHT22;5201;48.776;9.128;2023-08-07T04:57:30;12.80;99.90
10312;DHT22;5201;48.776;9.128;2023-08-07T04:59:55;12.80;99.90
10312;DHT22;5201;48.776;9.128;2023-08-07T05:02:21;12.80;99.90
10312;DHT22;5201;48.776;9.128;2023-08-07T05:04:47;12.80;99.90
10312;DHT22;5201;48.776;9.128;2023-08-07T05:07:12;12.80;99.90
10312;DHT22;5201;48.776;9.128;2023-08-07T05:09:38;13.10;99.90
10312;DHT22;5201;48.776;9.128;2023-08-07T05:12:05;12.90;99.90
10312;DHT22;5201;48.776;9.128;2023-08-07T05:14:32;12.80;99.90
10312;DHT22;5201;48.776;9.128;2023-08-07T05:16:57;12.80;99.90
10312;DHT22;5201;48.776;9.128;2023-08-07T05:19:23;12.80;99.90
10312;DHT22;5201;48.776;9.128;2023-08-07T05:21:48;12.90;99.90
10312;DHT22;5201;48.776;9.128;2023-08-07T05:24:19;12.90;99.90
10312;DHT22;5201;48.776;9.128;2023-08-07T05:26:45;13.00;99.90
10312;DHT22;5201;48.776;9.128;2023-08-07T05:29:10;13.10;99.90
10312;DHT22;5201;48.776;9.128;2023-08-07T05:31:36;13.20;99.90
10312;DHT22;5201;48.776;9.128;2023-08-07T05:34:02;13.20;99.90
10312;DHT22;5201;48.776;9.128;2023-08-07T05:36:28;13.30;99.90
10312;DHT22;5201;48.776;9.128;2023-08-07T05:38:55;13.70;99.90
10312;DHT22;5201;48.776;9.128;2023-08-07T05:41:21;13.40;99.90
10312;DHT22;5201;48.776;9.128;2023-08-07T05:43:46;13.40;99.90
10312;DHT22;5201;48.776;9.128;2023-08-07T05:46:12;13.50;99.90
10312;DHT22;5201;48.776;9.128;2023-08-07T05:48:37;13.50;99.90
10312;DHT22;5201;48.776;9.128;2023-08-07T05:51:03;13.60;99.90
10312;DHT22;5201;48.776;9.128;2023-08-07T05:53:29;14.20;99.90
10312;DHT22;5201;48.776;9.128;2023-08-07T05:55:55;13.70;99.90
10312;DHT22;5201;48.776;9.128;2023-08-07T05:58:21;14.10;99.90
10312;DHT22;5201;48.776;9.128;2023-08-07T06:00:46;13.70;99.90
10312;DHT22;5201;48.776;9.128;2023-08-07T06:03:12;13.60;99.90
10312;DHT22;5201;48.776;9.128;2023-08-07T06:05:38;14.10;99.90
10312;DHT22;5201;48.776;9.128;2023-08-07T06:08:03;13.60;99.90
10312;DHT22;5201;48.776;9.128;2023-08-07T06:10:29;13.60;99.90
10312;DHT22;5201;48.776;9.128;2023-08-07T06:12:55;13.60;99.90
10312;DHT22;5201;48.776;9.128;2023-08-07T06:15:20;13.90;99.90
10312;DHT22;5201;48.776;9.128;2023-08-07T06:17:46;13.60;99.90
10312;DHT22;5201;48.776;9.128;2023-08-07T06:20:11;13.50;99.90
10312;DHT22;5201;48.776;9.128;2023-08-07T06:22:40;13.60;99.90
10312;DHT22;5201;48.776;9.128;2023-08-07T06:25:06;13.60;99.90
10312;DHT22;5201;48.776;9.128;2023-08-07T06:27:32;13.60;99.90
10312;DHT22;5201;48.776;9.128;2023-08-07T06:29:58;13.70;99.90
10312;DHT22;5201;48.776;9.128;2023-08-07T06:32:25;13.80;99.90
10312;DHT22;5201;48.776;9.128;2023-08-07T06:34:51;13.90;99.90
10312;DHT22;5201;48.776;9.128;2023-08-07T06:37:16;14.40;99.90
10312;DHT22;5201;48.776;9.128;2023-08-07T06:39:42;13.90;99.90
10312;DHT22;5201;48.776;9.128;2023-08-07T06:42:07;13.90;99.90
10312;DHT22;5201;48.776;9.128;2023-08-07T06:44:33;14.00;99.90
10312;DHT22;5201;48.776;9.128;2023-08-07T06:46:59;14.10;99.90
10312;DHT22;5201;48.776;9.128;2023-08-07T06:49:24;14.50;99.90
10312;DHT22;5201;48.776;9.128;2023-08-07T06:51:50;14.20;99.90
10312;DHT22;5201;48.776;9.128;2023-08-07T06:54:15;14.30;99.90
10312;DHT22;5201;48.776;9.128;2023-08-07T06:56:41;14.40;99.90
10312;DHT22;5201;48.776;9.128;2023-08-07T06:59:08;14.40;99.90
10312;DHT22;5201;48.776;9.128;2023-08-07T07:01:33;14.50;99.90
10312;DHT22;5201;48.776;9.128;2023-08-07T07:03:59;14.50;99.90
10312;DHT22;5201;48.776;9.128;2023-08-07T07:06:24;14.60;99.90
10312;DHT22;5201;48.776;9.128;2023-08-07T07:08:52;15.10;99.90
10312;DHT22;5201;48.776;9.128;2023-08-07T07:11:22;14.80;99.90
10312;DHT22;5201;48.776;9.128;2023-08-07T07:13:51;14.70;99.90
10312;DHT22;5201;48.776;9.128;2023-08-07T07:16:21;14.80;99.90
10312;DHT22;5201;48.776;9.128;2023-08-07T07:18:48;15.00;99.90
10312;DHT22;5201;48.776;9.128;2023-08-07T07:21:14;14.80;99.90
10312;DHT22;5201;48.776;9.128;2023-08-07T07:23:40;15.20;99.90
10312;DHT22;5201;48.776;9.128;2023-08-07T07:26:05;14.60;99.90
10312;DHT22;5201;48.776;9.128;2023-08-07T07:28:31;14.60;99.90
10312;DHT22;5201;48.776;9.128;2023-08-07T07:30:57;14.60;99.90
10312;DHT22;5201;48.776;9.128;2023-08-07T07:33:23;14.70;99.90
10312;DHT22;5201;48.776;9.128;2023-08-07T07:35:48;14.70;99.90
10312;DHT22;5201;48.776;9.128;2023-08-07T07:38:14;15.00;99.90
10312;DHT22;5201;48.776;9.128;2023-08-07T07:40:41;14.70;99.90
10312;DHT22;5201;48.776;9.128;2023-08-07T07:43:06;14.70;99.90
10312;DHT22;5201;48.776;9.128;2023-08-07T07:45:32;14.70;99.90
10312;DHT22;5201;48.776;9.128;2023-08-07T07:48:04;14.90;99.90
10312;DHT22;5201;48.776;9.128;2023-08-07T07:50:29;15.10;99.90
10312;DHT22;5201;48.776;9.128;2023-08-07T07:52:55;15.10;99.90
10312;DHT22;5201;48.776;9.128;2023-08-07T07:55:20;15.60;99.90
10312;DHT22;5201;48.776;9.128;2023-08-07T07:57:46;15.70;99.90
10312;DHT22;5201;48.776;9.128;2023-08-07T08:00:13;15.10;99.90
10312;DHT22;5201;48.776;9.128;2023-08-07T08:02:39;15.30;99.90
10312;DHT22;5201;48.776;9.128;2023-08-07T08:05:07;15.40;99.90
10312;DHT22;5201;48.776;9.128;2023-08-07T08:07:33;15.40;99.90
10312;DHT22;5201;48.776;9.128;2023-08-07T08:10:00;15.30;99.90
10312;DHT22;5201;48.776;9.128;2023-08-07T08:12:26;15.50;99.90
10312;DHT22;5201;48.776;9.128;2023-08-07T08:14:51;15.10;99.90
10312;DHT22;5201;48.776;9.128;2023-08-07T08:17:17;15.10;99.90
10312;DHT22;5201;48.776;9.128;2023-08-07T08:19:42;15.00;99.90
10312;DHT22;5201;48.776;9.128;2023-08-07T08:22:08;15.00;99.90
10312;DHT22;5201;48.776;9.128;2023-08-07T08:24:33;15.10;99.90
10312;DHT22;5201;48.776;9.128;2023-08-07T08:27:00;15.20;99.90
10312;DHT22;5201;48.776;9.128;2023-08-07T08:29:25;15.20;99.90
10312;DHT22;5201;48.776;9.128;2023-08-07T08:31:53;15.10;99.90
10312;DHT22;5201;48.776;9.128;2023-08-07T08:34:20;15.30;99.90
10312;DHT22;5201;48.776;9.128;2023-08-07T08:36:47;15.50;99.90
10312;DHT22;5201;48.776;9.128;2023-08-07T08:39:12;15.50;99.90
10312;DHT22;5201;48.776;9.128;2023-08-07T08:41:39;15.70;99.90
10312;DHT22;5201;48.776;9.128;2023-08-07T08:44:07;15.80;99.90
10312;DHT22;5201;48.776;9.128;2023-08-07T08:46:33;16.00;99.90
10312;DHT22;5201;48.776;9.128;2023-08-07T08:49:01;16.00;99.90
10312;DHT22;5201;48.776;9.128;2023-08-07T08:51:28;16.30;99.90
10312;DHT22;5201;48.776;9.128;2023-08-07T08:53:55;16.50;99.90
10312;DHT22;5201;48.776;9.128;2023-08-07T08:56:22;16.60;99.90
10312;DHT22;5201;48.776;9.128;2023-08-07T08:58:52;16.60;99.90
10312;DHT22;5201;48.776;9.128;2023-08-07T09:01:18;16.90;99.90
10312;DHT22;5201;48.776;9.128;2023-08-07T09:03:47;16.90;99.90
10312;DHT22;5201;48.776;9.128;2023-08-07T09:06:13;17.20;99.90
10312;DHT22;5201;48.776;9.128;2023-08-07T09:08:41;17.60;99.90
10312;DHT22;5201;48.776;9.128;2023-08-07T09:11:08;17.80;99.90
10312;DHT22;5201;48.776;9.128;2023-08-07T09:13:33;17.90;99.90
10312;DHT22;5201;48.776;9.128;2023-08-07T09:16:02;17.90;99.90
10312;DHT22;5201;48.776;9.128;2023-08-07T09:18:28;17.80;99.90
10312;DHT22;5201;48.776;9.128;2023-08-07T09:20:53;17.50;99.90
10312;DHT22;5201;48.776;9.128;2023-08-07T09:23:19;17.40;99.90
10312;DHT22;5201;48.776;9.128;2023-08-07T09:25:45;17.40;99.90
10312;DHT22;5201;48.776;9.128;2023-08-07T09:28:11;17.30;99.90
10312;DHT22;5201;48.776;9.128;2023-08-07T09:30:37;17.30;99.90
10312;DHT22;5201;48.776;9.128;2023-08-07T09:33:04;17.00;99.90
10312;DHT22;5201;48.776;9.128;2023-08-07T09:35:30;17.00;99.90
10312;DHT22;5201;48.776;9.128;2023-08-07T09:38:00;17.10;99.90
10312;DHT22;5201;48.776;9.128;2023-08-07T09:40:26;17.30;99.90
10312;DHT22;5201;48.776;9.128;2023-08-07T09:42:53;17.40;99.90
10312;DHT22;5201;48.776;9.128;2023-08-07T09:45:26;17.60;99.90
10312;DHT22;5201;48.776;9.128;2023-08-07T09:48:03;17.70;99.90
10312;DHT22;5201;48.776;9.128;2023-08-07T09:50:29;17.60;99.90
10312;DHT22;5201;48.776;9.128;2023-08-07T09:52:55;17.60;99.90
10312;DHT22;5201;48.776;9.128;2023-08-07T09:55:22;17.60;99.90
10312;DHT22;5201;48.776;9.128;2023-08-07T09:57:48;17.50;99.90
10312;DHT22;5201;48.776;9.128;2023-08-07T10:00:14;17.50;99.90
10312;DHT22;5201;48.776;9.128;2023-08-07T10:02:41;17.60;99.90
10312;DHT22;5201;48.776;9.128;2023-08-07T10:05:10;17.60;99.90
10312;DHT22;5201;48.776;9.128;2023-08-07T10:07:37;17.70;99.90
10312;DHT22;5201;48.776;9.128;2023-08-07T10:10:04;17.90;99.90
10312;DHT22;5201;48.776;9.128;2023-08-07T10:12:29;18.20;99.90
10312;DHT22;5201;48.776;9.128;2023-08-07T10:14:55;18.50;99.90
10312;DHT22;5201;48.776;9.128;2023-08-07T10:17:22;18.30;99.90
10312;DHT22;5201;48.776;9.128;2023-08-07T10:19:48;18.10;99.90
10312;DHT22;5201;48.776;9.128;2023-08-07T10:22:15;18.20;99.90
10312;DHT22;5201;48.776;9.128;2023-08-07T10:24:42;18.20;99.90
10312;DHT22;5201;48.776;9.128;2023-08-07T10:27:11;18.10;99.90
10312;DHT22;5201;48.776;9.128;2023-08-07T10:29:38;18.10;99.90
10312;DHT22;5201;48.776;9.128;2023-08-07T10:32:06;18.60;99.90
10312;DHT22;5201;48.776;9.128;2023-08-07T10:34:36;18.40;99.90
10312;DHT22;5201;48.776;9.128;2023-08-07T10:37:06;18.20;99.90
10312;DHT22;5201;48.776;9.128;2023-08-07T10:39:32;18.10;99.90
10312;DHT22;5201;48.776;9.128;2023-08-07T10:41:58;17.90;99.90
10312;DHT22;5201;48.776;9.128;2023-08-07T10:44:24;17.80;99.90
10312;DHT22;5201;48.776;9.128;2023-08-07T10:46:55;17.70;99.90
10312;DHT22;5201;48.776;9.128;2023-08-07T10:49:37;17.70;99.90
10312;DHT22;5201;48.776;9.128;2023-08-07T10:52:13;17.80;99.90
10312;DHT22;5201;48.776;9.128;2023-08-07T10:54:49;17.70;99.90
10312;DHT22;5201;48.776;9.128;2023-08-07T10:57:17;17.70;99.90
10312;DHT22;5201;48.776;9.128;2023-08-07T11:00:02;18.10;99.90
10312;DHT22;5201;48.776;9.128;2023-08-07T11:02:31;17.90;99.90
10312;DHT22;5201;48.776;9.128;2023-08-07T11:04:58;18.00;99.90
10312;DHT22;5201;48.776;9.128;2023-08-07T11:07:26;18.10;99.90
10312;DHT22;5201;48.776;9.128;2023-08-07T11:09:52;18.10;99.90
10312;DHT22;5201;48.776;9.128;2023-08-07T11:12:18;18.20;99.90
10312;DHT22;5201;48.776;9.128;2023-08-07T11:14:44;18.00;99.90
10312;DHT22;5201;48.776;9.128;2023-08-07T11:17:10;17.70;99.90
10312;DHT22;5201;48.776;9.128;2023-08-07T11:19:36;17.60;99.90
10312;DHT22;5201;48.776;9.128;2023-08-07T11:22:02;17.60;99.90
10312;DHT22;5201;48.776;9.128;2023-08-07T11:24:28;17.60;99.90
10312;DHT22;5201;48.776;9.128;2023-08-07T11:26:55;17.60;99.90
10312;DHT22;5201;48.776;9.128;2023-08-07T11:29:22;17.50;99.90
10312;DHT22;5201;48.776;9.128;2023-08-07T11:31:50;17.60;99.90
10312;DHT22;5201;48.776;9.128;2023-08-07T11:34:17;17.90;99.90
10312;DHT22;5201;48.776;9.128;2023-08-07T11:36:44;17.50;99.90
10312;DHT22;5201;48.776;9.128;2023-08-07T11:39:10;17.50;99.90
10312;DHT22;5201;48.776;9.128;2023-08-07T11:41:36;17.50;99.90
10312;DHT22;5201;48.776;9.128;2023-08-07T11:44:02;17.50;99.90
10312;DHT22;5201;48.776;9.128;2023-08-07T11:46:28;17.40;99.90
10312;DHT22;5201;48.776;9.128;2023-08-07T11:48:56;17.30;99.90
10312;DHT22;5201;48.776;9.128;2023-08-07T11:51:22;17.60;99.90
10312;DHT22;5201;48.776;9.128;2023-08-07T11:53:48;17.20;99.90
10312;DHT22;5201;48.776;9.128;2023-08-07T11:56:14;17.50;99.90
10312;DHT22;5201;48.776;9.128;2023-08-07T11:58:41;17.10;99.90
10312;DHT22;5201;48.776;9.128;2023-08-07T12:01:24;17.00;99.90
10312;DHT22;5201;48.776;9.128;2023-08-07T12:03:56;16.90;99.90
10312;DHT22;5201;48.776;9.128;2023-08-07T12:06:25;17.00;99.90
10312;DHT22;5201;48.776;9.128;2023-08-07T12:08:54;17.00;99.90
10312;DHT22;5201;48.776;9.128;2023-08-07T12:11:20;17.20;99.90
10312;DHT22;5201;48.776;9.128;2023-08-07T12:13:49;17.20;99.90
10312;DHT22;5201;48.776;9.128;2023-08-07T12:16:16;17.20;99.90
10312;DHT22;5201;48.776;9.128;2023-08-07T12:21:12;17.50;99.90
10312;DHT22;5201;48.776;9.128;2023-08-07T12:23:38;17.20;99.90
10312;DHT22;5201;48.776;9.128;2023-08-07T12:26:04;16.80;99.90
10312;DHT22;5201;48.776;9.128;2023-08-07T12:28:34;17.20;99.90
10312;DHT22;5201;48.776;9.128;2023-08-07T12:31:00;17.20;99.90
10312;DHT22;5201;48.776;9.128;2023-08-07T12:33:26;17.40;99.90
10312;DHT22;5201;48.776;9.128;2023-08-07T12:35:52;17.60;99.90
10312;DHT22;5201;48.776;9.128;2023-08-07T12:38:18;17.60;99.90
10312;DHT22;5201;48.776;9.128;2023-08-07T12:40:44;17.90;99.90
10312;DHT22;5201;48.776;9.128;2023-08-07T12:43:10;17.80;99.90
10312;DHT22;5201;48.776;9.128;2023-08-07T12:45:36;17.80;99.90
10312;DHT22;5201;48.776;9.128;2023-08-07T12:48:02;17.70;99.90
10312;DHT22;5201;48.776;9.128;2023-08-07T12:50:28;17.80;99.90
10312;DHT22;5201;48.776;9.128;2023-08-07T12:52:54;18.00;99.90
10312;DHT22;5201;48.776;9.128;2023-08-07T12:55:20;18.10;99.90
10312;DHT22;5201;48.776;9.128;2023-08-07T12:57:45;18.00;99.90
10312;DHT22;5201;48.776;9.128;2023-08-07T13:00:12;17.80;99.90
10312;DHT22;5201;48.776;9.128;2023-08-07T13:02:44;17.90;99.90
10312;DHT22;5201;48.776;9.128;2023-08-07T13:05:11;18.10;99.90
10312;DHT22;5201;48.776;9.128;2023-08-07T13:07:38;18.50;99.90
10312;DHT22;5201;48.776;9.128;2023-08-07T13:10:05;18.30;99.90
10312;DHT22;5201;48.776;9.128;2023-08-07T13:12:33;18.40;99.90
10312;DHT22;5201;48.776;9.128;2023-08-07T13:15:00;18.30;99.90
10312;DHT22;5201;48.776;9.128;2023-08-07T13:17:25;18.30;99.90
10312;DHT22;5201;48.776;9.128;2023-08-07T13:19:51;18.30;99.90
10312;DHT22;5201;48.776;9.128;2023-08-07T13:22:17;18.00;99.90
10312;DHT22;5201;48.776;9.128;2023-08-07T13:24:42;17.90;99.90
10312;DHT22;5201;48.776;9.128;2023-08-07T13:27:08;18.00;99.90
10312;DHT22;5201;48.776;9.128;2023-08-07T13:29:34;18.00;99.90
10312;DHT22;5201;48.776;9.128;2023-08-07T13:32:00;17.90;99.90
10312;DHT22;5201;48.776;9.128;2023-08-07T13:34:25;17.80;99.90
10312;DHT22;5201;48.776;9.128;2023-08-07T13:36:51;17.90;99.90
10312;DHT22;5201;48.776;9.128;2023-08-07T13:39:17;17.90;99.90
10312;DHT22;5201;48.776;9.128;2023-08-07T13:41:42;17.90;99.90
10312;DHT22;5201;48.776;9.128;2023-08-07T13:44:08;18.00;99.90
10312;DHT22;5201;48.776;9.128;2023-08-07T13:46:33;18.10;99.90
10312;DHT22;5201;48.776;9.128;2023-08-07T13:48:59;18.20;99.90
10312;DHT22;5201;48.776;9.128;2023-08-07T13:51:25;18.20;99.90
10312;DHT22;5201;48.776;9.128;2023-08-07T13:53:51;18.30;99.90
10312;DHT22;5201;48.776;9.128;2023-08-07T13:56:18;18.20;99.90
10312;DHT22;5201;48.776;9.128;2023-08-07T13:58:43;18.30;99.90
10312;DHT22;5201;48.776;9.128;2023-08-07T14:01:09;18.40;99.90
10312;DHT22;5201;48.776;9.128;2023-08-07T14:03:34;18.40;99.90
10312;DHT22;5201;48.776;9.128;2023-08-07T14:06:00;18.30;99.90
10312;DHT22;5201;48.776;9.128;2023-08-07T14:08:26;18.20;99.90
10312;DHT22;5201;48.776;9.128;2023-08-07T14:10:52;18.30;99.90
10312;DHT22;5201;48.776;9.128;2023-08-07T14:13:17;18.40;99.90
10312;DHT22;5201;48.776;9.128;2023-08-07T14:15:43;18.50;99.90
10312;DHT22;5201;48.776;9.128;2023-08-07T14:18:09;18.70;99.90
10312;DHT22;5201;48.776;9.128;2023-08-07T14:20:36;18.60;99.90
10312;DHT22;5201;48.776;9.128;2023-08-07T14:23:02;18.70;99.90
10312;DHT22;5201;48.776;9.128;2023-08-07T14:25:27;18.70;99.90
10312;DHT22;5201;48.776;9.128;2023-08-07T14:27:53;18.80;99.90
10312;DHT22;5201;48.776;9.128;2023-08-07T14:30:19;18.70;99.90
10312;DHT22;5201;48.776;9.128;2023-08-07T14:32:45;18.60;99.90
10312;DHT22;5201;48.776;9.128;2023-08-07T14:35:15;18.40;99.90
10312;DHT22;5201;48.776;9.128;2023-08-07T14:37:41;18.30;99.90
10312;DHT22;5201;48.776;9.128;2023-08-07T14:40:07;18.20;99.90
10312;DHT22;5201;48.776;9.128;2023-08-07T14:42:33;18.30;99.90
10312;DHT22;5201;48.776;9.128;2023-08-07T14:44:59;18.40;99.90
10312;DHT22;5201;48.776;9.128;2023-08-07T14:47:25;18.40;99.90
10312;DHT22;5201;48.776;9.128;2023-08-07T14:49:51;18.40;99.90
10312;DHT22;5201;48.776;9.128;2023-08-07T14:52:16;18.50;99.90
10312;DHT22;5201;48.776;9.128;2023-08-07T14:54:42;18.60;99.90
10312;DHT22;5201;48.776;9.128;2023-08-07T14:57:08;18.50;99.90
10312;DHT22;5201;48.776;9.128;2023-08-07T14:59:33;18.60;99.90
10312;DHT22;5201;48.776;9.128;2023-08-07T15:01:59;18.60;99.90
10312;DHT22;5201;48.776;9.128;2023-08-07T15:04:24;18.70;99.90
10312;DHT22;5201;48.776;9.128;2023-08-07T15:06:50;18.50;99.90
10312;DHT22;5201;48.776;9.128;2023-08-07T15:09:16;18.50;99.90
10312;DHT22;5201;48.776;9.128;2023-08-07T15:11:45;18.50;99.90
10312;DHT22;5201;48.776;9.128;2023-08-07T15:14:10;18.80;99.90
10312;DHT22;5201;48.776;9.128;2023-08-07T15:16:36;18.60;99.90
10312;DHT22;5201;48.776;9.128;2023-08-07T15:19:02;18.50;99.90
10312;DHT22;5201;48.776;9.128;2023-08-07T15:21:29;18.60;99.90
10312;DHT22;5201;48.776;9.128;2023-08-07T15:23:55;18.50;99.90
10312;DHT22;5201;48.776;9.128;2023-08-07T15:26:21;18.50;99.90
10312;DHT22;5201;48.776;9.128;2023-08-07T15:28:46;18.60;99.90
10312;DHT22;5201;48.776;9.128;2023-08-07T15:31:12;18.50;99.90
10312;DHT22;5201;48.776;9.128;2023-08-07T15:33:37;18.60;99.90
10312;DHT22;5201;48.776;9.128;2023-08-07T15:36:03;16.60;99.90
10312;DHT22;5201;48.776;9.128;2023-08-07T15:38:29;18.80;99.90
10312;DHT22;5201;48.776;9.128;2023-08-07T15:40:55;18.80;99.90
10312;DHT22;5201;48.776;9.128;2023-08-07T15:43:21;18.60;99.90
10312;DHT22;5201;48.776;9.128;2023-08-07T15:45:50;18.60;99.90